Haslett, Michigan
Current Conditions -  °F | °C
As of 6:53 PM on Wednesday 22 Oct 2014 (Local Time) from KLAN Reporting Station
Overcast Overcast  
Wind Chill: 46°   Ceiling: 2000
Heat Index: 46°   Visibility: 10mi
Dew Point: 38°   Wind: 3mph
Humidity: 73%   Direction: 30°NNE
Pressure: 30.31"   Gusts: NA
Location:  42.75°N, 84.41°W
Report Text: KLAN 222253Z 03003KT 10SM OVC020 08/03 A3031 RMK AO2 SLP272 T00780033
Loading
Personal Weather Stations






























Interactive Weather Map
Tropical Storm Tracking
New forecast layout! Learn more

10-Day Weather Forecast

Advertisements
Track Severe Weather on mobile